Time;durP1;ratioP1;P1;durP2;ratioP2;P2;SDS_P1;SDS_P2;PMS_P1;PMS_P2;Temp;Humidity;BMP_temperature;BMP_pressure;BME280_temperature;BME280_humidity;BME280_pressure;Samples;Min_cycle;Max_cycle;Signal;HPM_P1;HPM_P2
2021/11/20 06:00:47;;;;;;;32.13;14.17;;;7.20;99.90;;;;;;5955437;23;20212;-82
2021/11/20 06:03:15;;;;;;;30.77;14.43;;;7.20;99.90;;;;;;4860407;29;20338;-81
2021/11/20 06:05:45;;;;;;;29.92;13.77;;;7.20;99.90;;;;;;4862252;29;20107;-80
2021/11/20 06:08:13;;;;;;;29.05;14.07;;;7.20;99.90;;;;;;4861890;29;20093;-80
2021/11/20 06:10:42;;;;;;;31.02;14.48;;;7.20;99.90;;;;;;4862056;29;20105;-79
2021/11/20 06:13:12;;;;;;;25.85;13.38;;;7.20;99.90;;;;;;4862284;29;20136;-82
2021/11/20 06:15:41;;;;;;;28.15;13.68;;;7.20;99.90;;;;;;4862252;29;20137;-79
2021/11/20 06:18:10;;;;;;;24.90;12.35;;;7.20;99.90;;;;;;4861548;29;20061;-83
2021/11/20 06:20:38;;;;;;;28.00;12.10;;;7.10;99.90;;;;;;4862284;29;20144;-81
2021/11/20 06:23:06;;;;;;;26.00;11.82;;;7.20;99.90;;;;;;4862189;29;20143;-80
2021/11/20 06:25:33;;;;;;;24.40;12.50;;;7.20;99.90;;;;;;4860998;29;20574;-83
2021/11/20 06:28:00;;;;;;;25.42;12.88;;;7.20;99.90;;;;;;4861580;29;20072;-81
2021/11/20 06:30:29;;;;;;;23.67;12.02;;;7.20;99.90;;;;;;4862346;29;20140;-79
2021/11/20 06:32:57;;;;;;;25.00;12.85;;;7.10;99.90;;;;;;4843648;29;20085;-80
2021/11/20 06:35:30;;;;;;;24.40;11.70;;;7.20;99.90;;;;;;4843630;29;20136;-80
2021/11/20 06:37:57;;;;;;;23.38;12.48;;;7.20;99.90;;;;;;4847730;29;20136;-79
2021/11/20 06:40:27;;;;;;;22.98;11.23;;;7.20;99.90;;;;;;4861604;29;20137;-79
2021/11/20 06:42:56;;;;;;;25.25;12.02;;;7.20;99.90;;;;;;4843553;29;20138;-78
2021/11/20 06:45:27;;;;;;;23.75;11.20;;;7.20;99.90;;;;;;4842385;29;20160;-81
2021/11/20 06:47:55;;;;;;;22.55;11.32;;;7.20;99.90;;;;;;4855915;29;20054;-79
2021/11/20 06:50:26;;;;;;;23.05;11.35;;;7.30;99.90;;;;;;4861829;29;20092;-81
2021/11/20 06:52:53;;;;;;;23.20;11.60;;;7.30;99.90;;;;;;4861579;29;20065;-79
2021/11/20 06:55:22;;;;;;;24.48;11.98;;;7.30;99.90;;;;;;4858520;29;20132;-78
2021/11/20 06:57:57;;;;;;;24.42;11.90;;;7.40;99.90;;;;;;4861563;29;20080;-80
2021/11/20 07:00:28;;;;;;;21.65;11.20;;;7.40;99.90;;;;;;4861065;29;20124;-80
2021/11/20 07:03:00;;;;;;;25.33;12.02;;;7.30;99.90;;;;;;4860203;29;20160;-81
2021/11/20 07:05:32;;;;;;;26.30;11.68;;;7.20;99.90;;;;;;4861546;29;20065;-82
2021/11/20 07:08:00;;;;;;;24.38;11.43;;;7.10;99.90;;;;;;4861335;29;20555;-81
2021/11/20 07:10:28;;;;;;;20.65;10.43;;;7.10;99.90;;;;;;4860754;29;20540;-80
2021/11/20 07:12:57;;;;;;;21.77;10.77;;;7.00;99.90;;;;;;4860668;29;20478;-83
2021/11/20 07:15:26;;;;;;;21.38;10.77;;;7.00;99.90;;;;;;4860838;29;20140;-85
2021/11/20 07:17:54;;;;;;;19.20;9.70;;;7.00;99.90;;;;;;4861986;29;20144;-83
2021/11/20 07:20:25;;;;;;;22.38;10.23;;;7.00;99.90;;;;;;4857777;29;20085;-86
2021/11/20 07:22:54;;;;;;;20.38;9.48;;;7.10;99.90;;;;;;4862012;29;20411;-91
2021/11/20 07:25:24;;;;;;;19.85;9.75;;;7.10;99.90;;;;;;4866823;29;20054;-90
2021/11/20 07:27:51;;;;;;;20.17;10.32;;;7.10;99.90;;;;;;4862227;29;20046;-85
2021/11/20 07:30:20;;;;;;;19.00;9.77;;;7.10;99.90;;;;;;4861988;29;20480;-85
2021/11/20 07:32:48;;;;;;;20.42;9.57;;;7.20;99.90;;;;;;4861897;29;20114;-91
2021/11/20 07:35:27;;;;;;;21.55;10.20;;;7.20;99.90;;;;;;4861882;29;20061;-88
2021/11/20 07:37:56;;;;;;;21.27;10.32;;;7.30;99.90;;;;;;4862757;29;20385;-86
2021/11/20 07:40:26;;;;;;;22.50;10.10;;;7.30;99.90;;;;;;4864393;29;20103;-85
2021/11/20 07:42:53;;;;;;;18.95;9.55;;;7.40;99.90;;;;;;4861803;29;20136;-85
2021/11/20 07:45:21;;;;;;;18.90;9.50;;;7.40;99.90;;;;;;4860609;29;20144;-87
2021/11/20 07:47:48;;;;;;;20.30;9.88;;;7.50;99.90;;;;;;4861809;29;20046;-84
2021/11/20 07:50:17;;;;;;;20.88;10.70;;;7.50;99.90;;;;;;4861417;29;20102;-85
2021/11/20 07:52:47;;;;;;;20.73;10.85;;;7.60;99.90;;;;;;4862051;29;20061;-91
2021/11/20 07:55:17;;;;;;;20.55;10.27;;;7.60;99.90;;;;;;4863089;29;20057;-88
2021/11/20 07:57:44;;;;;;;20.48;10.63;;;7.70;99.90;;;;;;4862961;29;20065;-94
2021/11/20 08:00:15;;;;;;;20.48;10.07;;;7.80;99.90;;;;;;4869207;29;20057;-92
2021/11/20 08:02:43;;;;;;;20.15;10.10;;;7.80;99.90;;;;;;4892946;29;20053;-93
2021/11/20 08:05:11;;;;;;;19.75;9.77;;;7.80;99.90;;;;;;4880483;29;20491;-87
2021/11/20 08:07:39;;;;;;;20.88;10.32;;;7.80;99.90;;;;;;4880449;29;20459;-86
2021/11/20 08:10:09;;;;;;;18.13;9.80;;;7.90;99.90;;;;;;4898796;29;20057;-84
2021/11/20 08:12:38;;;;;;;22.27;10.65;;;7.90;99.90;;;;;;4901188;29;20053;-81
2021/11/20 08:15:07;;;;;;;20.23;10.20;;;7.90;99.90;;;;;;4898351;29;20175;-80
2021/11/20 08:17:37;;;;;;;19.83;9.95;;;7.90;99.90;;;;;;4897803;29;20115;-81
2021/11/20 08:20:11;;;;;;;21.45;10.82;;;7.90;99.90;;;;;;4898204;29;20056;-81
2021/11/20 08:22:39;;;;;;;21.02;10.55;;;7.90;99.90;;;;;;4897998;29;20418;-83
2021/11/20 08:25:09;;;;;;;19.42;10.48;;;8.00;99.90;;;;;;4898299;29;20107;-81
2021/11/20 08:27:38;;;;;;;20.67;10.73;;;7.90;99.90;;;;;;4900446;29;20091;-82
2021/11/20 08:30:08;;;;;;;21.00;11.30;;;8.00;99.90;;;;;;4897875;29;20143;-79
2021/11/20 08:32:35;;;;;;;21.30;11.43;;;7.90;99.90;;;;;;4891398;29;20093;-82
2021/11/20 08:35:03;;;;;;;22.42;11.27;;;7.90;99.90;;;;;;4896245;29;20091;-82
2021/11/20 08:37:31;;;;;;;22.58;11.45;;;8.00;99.90;;;;;;4896602;29;20059;-81
2021/11/20 08:39:59;;;;;;;21.98;10.57;;;8.00;99.90;;;;;;4898268;29;20052;-79
2021/11/20 08:42:27;;;;;;;22.92;11.48;;;7.90;99.90;;;;;;4893747;29;20384;-79
2021/11/20 08:44:56;;;;;;;23.27;11.73;;;7.90;99.90;;;;;;4894287;29;20087;-84
2021/11/20 08:47:23;;;;;;;22.98;11.25;;;8.00;99.90;;;;;;4897007;29;20052;-82
2021/11/20 08:49:50;;;;;;;22.67;11.48;;;7.90;99.90;;;;;;4896834;29;20057;-81
2021/11/20 08:52:17;;;;;;;22.38;11.07;;;8.00;99.90;;;;;;4896029;29;20136;-79
2021/11/20 08:54:45;;;;;;;19.55;10.50;;;7.90;99.90;;;;;;4895292;29;20088;-79
2021/11/20 08:57:13;;;;;;;21.17;11.15;;;8.10;99.90;;;;;;4894031;29;20155;-81
2021/11/20 08:59:42;;;;;;;21.00;10.25;;;8.20;99.90;;;;;;4895540;29;20426;-83
2021/11/20 09:02:18;;;;;;;20.02;9.82;;;8.20;99.90;;;;;;4898848;29;20092;-80
2021/11/20 09:04:57;;;;;;;22.17;10.95;;;8.20;99.90;;;;;;4901473;29;20048;-85
2021/11/20 09:07:33;;;;;;;21.25;10.50;;;8.30;99.90;;;;;;4894765;29;20099;-82
2021/11/20 09:10:09;;;;;;;23.70;11.20;;;8.30;99.90;;;;;;4893212;29;20503;-83
2021/11/20 09:12:46;;;;;;;24.15;11.98;;;8.30;99.90;;;;;;4894128;29;20098;-83
2021/11/20 09:15:21;;;;;;;24.02;11.10;;;8.40;99.90;;;;;;4894100;29;20151;-80
2021/11/20 09:17:52;;;;;;;23.90;11.43;;;8.40;99.90;;;;;;4907290;29;20057;-80
2021/11/20 09:20:21;;;;;;;20.38;11.18;;;8.40;99.90;;;;;;4896755;29;20134;-79
2021/11/20 09:22:48;;;;;;;20.80;11.23;;;8.40;99.90;;;;;;4891892;29;20554;-81
2021/11/20 09:25:17;;;;;;;21.52;11.18;;;8.50;99.90;;;;;;4891475;29;20131;-81
2021/11/20 09:27:45;;;;;;;22.58;11.43;;;8.40;99.90;;;;;;4892740;29;20060;-80
2021/11/20 09:30:16;;;;;;;20.88;10.68;;;8.50;99.90;;;;;;4892779;29;20076;-81
2021/11/20 09:32:43;;;;;;;22.52;11.88;;;8.50;99.90;;;;;;4892873;29;20152;-79
2021/11/20 09:35:12;;;;;;;22.58;11.73;;;8.50;99.90;;;;;;4892719;29;20768;-78
2021/11/20 09:37:40;;;;;;;21.75;11.43;;;8.50;99.90;;;;;;4892610;29;20670;-81
2021/11/20 09:40:10;;;;;;;20.60;11.30;;;8.50;99.90;;;;;;4892133;29;20667;-80
2021/11/20 09:42:43;;;;;;;20.90;11.40;;;8.50;99.90;;;;;;4892683;29;20143;-78
2021/11/20 09:45:15;;;;;;;22.25;11.27;;;8.50;99.90;;;;;;4893059;29;20091;-78
2021/11/20 09:47:48;;;;;;;24.70;11.52;;;8.50;99.90;;;;;;4892493;29;20418;-82
2021/11/20 09:50:22;;;;;;;21.30;11.15;;;8.50;99.90;;;;;;4893222;29;20080;-81
2021/11/20 09:52:50;;;;;;;20.13;10.50;;;8.60;99.90;;;;;;4895068;29;20131;-78
2021/11/20 09:55:24;;;;;;;22.13;11.05;;;8.50;99.90;;;;;;4896125;29;20135;-80
2021/11/20 09:57:55;;;;;;;18.77;9.52;;;8.50;99.90;;;;;;4895350;29;20092;-79
2021/11/20 10:00:52;;;;;;;21.30;10.60;;;8.50;99.90;;;;;;4896327;29;20762;-80
2021/11/20 10:03:35;;;;;;;21.02;10.80;;;8.60;99.90;;;;;;4899615;29;20480;-80
2021/11/20 10:06:09;;;;;;;23.58;11.80;;;8.60;99.90;;;;;;4900032;29;20131;-81
2021/11/20 10:08:40;;;;;;;19.83;10.53;;;8.60;99.90;;;;;;4886801;29;20131;-80
2021/11/20 10:11:30;;;;;;;19.48;10.38;;;8.60;99.90;;;;;;4899619;29;20136;-80
2021/11/20 10:14:02;;;;;;;23.20;11.35;;;8.60;99.90;;;;;;4899226;29;20053;-79
2021/11/20 10:16:44;;;;;;;21.58;10.95;;;8.60;99.90;;;;;;4899323;29;20091;-81
2021/11/20 10:19:21;;;;;;;20.38;10.20;;;8.60;99.90;;;;;;4899694;29;20455;-81
2021/11/20 10:22:08;;;;;;;18.92;9.80;;;8.70;99.90;;;;;;4899965;29;20135;-85
2021/11/20 10:24:49;;;;;;;22.10;10.38;;;8.70;99.90;;;;;;4899481;29;20143;-77
2021/11/20 10:27:52;;;;;;;18.35;9.40;;;8.70;99.90;;;;;;4899517;29;20067;-80
2021/11/20 10:30:28;;;;;;;;;;;8.80;99.90;;;;;;4886719;29;20131;-79
2021/11/20 10:32:59;;;;;;;16.10;8.15;;;8.80;99.90;;;;;;4898928;29;20010;-79
2021/11/20 10:35:31;;;;;;;17.25;8.10;;;8.90;99.90;;;;;;4900087;29;20053;-81
2021/11/20 10:38:11;;;;;;;12.32;6.30;;;8.90;99.90;;;;;;4899168;29;20052;-79
2021/11/20 10:40:47;;;;;;;15.30;8.20;;;8.90;99.90;;;;;;4898739;29;20059;-78
2021/11/20 10:43:24;;;;;;;17.98;9.75;;;8.90;99.90;;;;;;4900177;29;20135;-82
2021/11/20 10:46:25;;;;;;;20.75;10.27;;;8.80;99.90;;;;;;4901038;29;20084;-84
2021/11/20 10:49:30;;;;;;;16.23;8.88;;;8.80;99.90;;;;;;4901265;29;20112;-80
2021/11/20 10:52:07;;;;;;;16.75;8.65;;;8.80;99.90;;;;;;4899844;29;20132;-79
2021/11/20 10:55:10;;;;;;;19.95;9.73;;;8.80;99.90;;;;;;4894058;29;20092;-80
2021/11/20 10:58:09;;;;;;;18.60;9.40;;;8.80;99.90;;;;;;4898564;29;20451;-78
2021/11/20 11:01:24;;;;;;;17.75;8.32;;;8.80;99.90;;;;;;4898231;29;20048;-79
2021/11/20 11:04:06;;;;;;;19.38;9.05;;;8.80;99.90;;;;;;4897026;29;20493;-79
2021/11/20 11:06:55;;;;;;;16.70;8.82;;;8.90;99.90;;;;;;4898657;29;20320;-80
2021/11/20 11:09:36;;;;;;;16.45;8.63;;;8.80;99.90;;;;;;4898591;29;20131;-79
2021/11/20 11:12:13;;;;;;;18.08;8.98;;;8.80;99.90;;;;;;4884818;29;20131;-80
2021/11/20 11:15:31;;;;;;;13.68;7.25;;;8.80;99.90;;;;;;4895861;29;20048;-82
2021/11/20 11:18:32;;;;;;;14.27;7.20;;;8.80;99.90;;;;;;4884844;29;20056;-80
2021/11/20 11:21:41;;;;;;;13.95;7.03;;;8.90;99.90;;;;;;4894210;29;20571;-80
2021/11/20 11:24:30;;;;;;;12.95;7.53;;;8.90;99.90;;;;;;4888467;29;20132;-80
2021/11/20 11:27:07;;;;;;;14.55;7.43;;;8.90;99.90;;;;;;4894619;29;20131;-80
2021/11/20 11:29:59;;;;;;;11.32;6.00;;;8.90;99.90;;;;;;4894597;29;20052;-80
2021/11/20 11:32:31;;;;;;;9.35;4.10;;;8.90;99.90;;;;;;4889311;29;20048;-78
2021/11/20 11:35:05;;;;;;;6.00;3.58;;;8.90;99.90;;;;;;4894205;29;20048;-79
2021/11/20 11:37:42;;;;;;;5.47;3.08;;;9.00;99.90;;;;;;4894671;29;20557;-80
2021/11/20 11:40:24;;;;;;;5.30;2.60;;;9.00;99.90;;;;;;4893207;29;20044;-80
2021/11/20 11:43:00;;;;;;;5.28;2.88;;;9.10;99.90;;;;;;4889664;29;20147;-77
2021/11/20 11:45:57;;;;;;;4.85;2.45;;;9.20;99.90;;;;;;4891929;29;20076;-79
2021/11/20 11:49:06;;;;;;;4.13;2.25;;;9.20;99.90;;;;;;4894735;29;20108;-80
2021/11/20 11:51:43;;;;;;;4.75;2.67;;;9.30;99.90;;;;;;4887126;29;20128;-80
2021/11/20 11:54:32;;;;;;;3.83;2.25;;;9.30;99.90;;;;;;4892959;29;20052;-80
2021/11/20 11:57:36;;;;;;;4.25;2.38;;;9.30;99.90;;;;;;4893962;29;20084;-79
2021/11/20 12:00:22;;;;;;;4.25;2.53;;;9.30;99.90;;;;;;4894308;29;20067;-79
2021/11/20 12:02:53;;;;;;;4.40;2.25;;;9.40;99.90;;;;;;4893672;29;20298;-80
2021/11/20 12:05:32;;;;;;;5.13;2.80;;;9.40;99.90;;;;;;4892053;29;20056;-79
2021/11/20 12:08:22;;;;;;;4.05;2.40;;;9.30;99.90;;;;;;4893395;29;20079;-78
2021/11/20 12:10:58;;;;;;;4.45;2.45;;;9.30;99.90;;;;;;4893979;29;20413;-80
2021/11/20 12:13:37;;;;;;;4.68;2.30;;;9.30;99.90;;;;;;4894594;29;20093;-77
2021/11/20 12:16:31;;;;;;;3.97;2.58;;;9.30;99.90;;;;;;4893979;29;20060;-79
2021/11/20 12:19:07;;;;;;;4.32;2.20;;;9.30;99.90;;;;;;4893501;29;20081;-77
2021/11/20 12:21:44;;;;;;;4.22;2.40;;;9.30;99.90;;;;;;4893324;29;20593;-77
2021/11/20 12:24:26;;;;;;;5.25;2.50;;;9.40;99.90;;;;;;4893486;29;20159;-80
2021/11/20 12:27:00;;;;;;;4.55;2.70;;;9.50;99.90;;;;;;4893413;29;20080;-78
2021/11/20 12:29:54;;;;;;;4.57;2.40;;;9.50;99.90;;;;;;4892972;29;20099;-78
2021/11/20 12:32:51;;;;;;;4.80;2.30;;;9.60;99.90;;;;;;4893031;29;20131;-77
2021/11/20 12:36:12;;;;;;;6.47;3.00;;;9.60;99.90;;;;;;4893026;29;20408;-77
2021/11/20 12:38:59;;;;;;;5.07;3.10;;;9.70;99.90;;;;;;4834896;29;20484;-76
2021/11/20 12:41:57;;;;;;;4.47;2.80;;;9.70;99.90;;;;;;4875006;29;20143;-80
2021/11/20 12:45:04;;;;;;;5.43;3.30;;;9.70;99.90;;;;;;4875684;29;20144;-79
2021/11/20 12:48:00;;;;;;;6.63;3.17;;;9.80;99.90;;;;;;4890974;29;20078;-77
2021/11/20 12:50:58;;;;;;;6.10;3.63;;;9.80;99.90;;;;;;4891975;29;20059;-78
2021/11/20 12:53:33;;;;;;;5.22;3.20;;;9.80;99.90;;;;;;4893584;29;20061;-76
2021/11/20 12:56:28;;;;;;;5.88;3.40;;;9.80;99.90;;;;;;4893582;29;20044;-81
2021/11/20 12:58:59;;;;;;;6.47;4.10;;;9.80;99.90;;;;;;4893548;29;20176;-76
2021/11/20 13:01:31;;;;;;;10.38;5.97;;;9.90;99.90;;;;;;4892942;29;21078;-74
2021/11/20 13:04:13;;;;;;;9.27;5.50;;;10.00;99.90;;;;;;4893496;29;20123;-76
2021/11/20 13:06:50;;;;;;;11.90;7.07;;;10.10;99.90;;;;;;4893040;29;20467;-76
2021/11/20 13:09:31;;;;;;;8.25;5.03;;;10.20;99.90;;;;;;4893404;29;20463;-78
2021/11/20 13:12:04;;;;;;;7.68;4.75;;;10.30;99.90;;;;;;4877129;29;20132;-79
2021/11/20 13:15:14;;;;;;;7.57;3.97;;;10.40;99.70;;;;;;4879581;29;20100;-79
2021/11/20 13:17:58;;;;;;;7.10;4.20;;;10.60;99.40;;;;;;4893202;29;20143;-78
2021/11/20 13:20:35;;;;;;;6.43;4.25;;;10.80;98.80;;;;;;4893499;29;20084;-77
2021/11/20 13:23:12;;;;;;;8.07;5.15;;;10.90;98.40;;;;;;4894172;29;20063;-78
2021/11/20 13:26:14;;;;;;;7.55;4.38;;;10.90;97.70;;;;;;4893417;29;20112;-76
2021/11/20 13:28:45;;;;;;;6.72;4.05;;;10.90;97.70;;;;;;4894503;29;20064;-76
2021/11/20 13:31:17;;;;;;;7.28;4.50;;;10.90;97.70;;;;;;4898398;29;20080;-76
2021/11/20 13:33:45;;;;;;;6.80;4.55;;;11.00;97.60;;;;;;4892495;29;20164;-77
2021/11/20 13:36:13;;;;;;;9.90;6.07;;;11.00;97.00;;;;;;4897759;29;20135;-76
2021/11/20 13:38:40;;;;;;;21.77;14.32;;;11.00;97.20;;;;;;4897594;29;20056;-78
2021/11/20 13:41:07;;;;;;;14.00;8.95;;;11.10;97.30;;;;;;4898254;29;20095;-81
2021/11/20 13:43:37;;;;;;;8.70;5.50;;;11.30;97.40;;;;;;4897418;29;20159;-79
2021/11/20 13:46:13;;;;;;;6.88;4.68;;;11.50;97.10;;;;;;4897263;29;20127;-78
2021/11/20 13:48:41;;;;;;;6.93;4.57;;;11.60;96.90;;;;;;4891073;29;20052;-82
2021/11/20 13:51:17;;;;;;;6.82;4.55;;;11.70;96.50;;;;;;4896544;29;20052;-79
2021/11/20 13:53:50;;;;;;;7.25;4.68;;;11.80;96.20;;;;;;4896573;29;20059;-80
2021/11/20 13:56:18;;;;;;;6.13;4.25;;;11.90;95.70;;;;;;4896918;29;20061;-79
2021/11/20 13:58:45;;;;;;;6.70;4.47;;;12.00;95.30;;;;;;4896736;29;20063;-79
2021/11/20 14:01:20;;;;;;;7.05;4.75;;;12.80;99.90;;;;;;4896851;29;20049;-80
2021/11/20 14:03:56;;;;;;;;;;;;;;;;;;4896812;29;20084;-78
2021/11/20 14:06:27;;;;;;;7.32;4.68;;;;;;;;;;4895882;29;19983;-77
2021/11/20 14:08:57;;;;;;;7.57;4.63;;;;;;;;;;4896542;29;20052;-80
2021/11/20 14:11:27;;;;;;;6.97;4.68;;;;;;;;;;4895964;29;20049;-81
2021/11/20 14:13:56;;;;;;;7.05;4.93;;;13.10;99.90;;;;;;4896207;29;20139;-78
2021/11/20 14:16:36;;;;;;;7.90;4.93;;;13.50;99.90;;;;;;4896035;29;20088;-80
2021/11/20 14:19:06;;;;;;;8.52;5.13;;;14.60;94.00;;;;;;4895257;29;20135;-81
2021/11/20 14:21:37;;;;;;;7.90;4.55;;;14.90;88.30;;;;;;4895481;29;20051;-82
2021/11/20 14:24:08;;;;;;;6.53;4.30;;;15.10;86.20;;;;;;4896478;29;20066;-77
2021/11/20 14:26:46;;;;;;;6.85;4.75;;;15.50;83.50;;;;;;4897270;29;20056;-78
2021/11/20 14:29:17;;;;;;;7.70;4.90;;;16.90;79.30;;;;;;4898955;29;20148;-77
2021/11/20 14:31:49;;;;;;;6.93;4.45;;;17.40;78.50;;;;;;4896682;29;20488;-82
2021/11/20 14:34:18;;;;;;;6.53;4.53;;;19.70;69.70;;;;;;4895823;29;20108;-80
2021/11/20 14:36:50;;;;;;;6.07;4.22;;;;;;;;;;4900866;29;20112;-77
2021/11/20 14:39:30;;;;;;;5.82;3.92;;;23.00;54.90;;;;;;4901267;29;20084;-74
2021/11/20 14:41:59;;;;;;;5.88;4.03;;;24.30;51.50;;;;;;4898538;29;20037;-73
2021/11/20 14:44:27;;;;;;;7.30;4.85;;;25.20;48.50;;;;;;4917036;29;20045;-79
2021/11/20 14:47:04;;;;;;;6.85;4.43;;;25.50;47.10;;;;;;4915957;29;20048;-79
2021/11/20 14:49:35;;;;;;;7.10;4.53;;;25.60;46.20;;;;;;4905980;29;20157;-78
2021/11/20 14:52:04;;;;;;;6.63;4.60;;;26.10;45.20;;;;;;4897381;29;20053;-77
2021/11/20 14:54:31;;;;;;;7.20;4.95;;;26.30;44.30;;;;;;4896545;29;20139;-80
2021/11/20 14:57:03;;;;;;;7.03;4.40;;;26.40;43.70;;;;;;4909207;29;20063;-76
2021/11/20 14:59:39;;;;;;;6.03;3.97;;;26.20;43.40;;;;;;4912163;29;20136;-76
2021/11/20 15:02:09;;;;;;;5.55;3.60;;;26.00;43.40;;;;;;4899635;29;20048;-78
2021/11/20 15:04:36;;;;;;;4.40;3.10;;;25.60;43.50;;;;;;4897109;29;20132;-79
2021/11/20 15:07:04;;;;;;;5.15;3.40;;;25.20;43.70;;;;;;4896427;29;20052;-78
2021/11/20 15:09:32;;;;;;;6.00;3.65;;;24.70;44.40;;;;;;4896688;29;20481;-76
2021/11/20 15:11:59;;;;;;;5.20;3.30;;;23.80;45.30;;;;;;4897083;29;20056;-74
2021/11/20 15:14:26;;;;;;;4.95;3.35;;;23.00;54.00;;;;;;4895444;29;20136;-77
2021/11/20 15:16:54;;;;;;;5.05;3.60;;;21.70;47.70;;;;;;4894688;29;20080;-79
2021/11/20 15:19:23;;;;;;;6.40;3.92;;;21.30;49.00;;;;;;4895854;29;20426;-76
2021/11/20 15:21:54;;;;;;;6.22;3.55;;;20.30;50.60;;;;;;4897588;29;20048;-79
2021/11/20 15:24:23;;;;;;;5.28;3.50;;;19.50;52.00;;;;;;4893456;29;20133;-78
2021/11/20 15:26:55;;;;;;;5.05;3.33;;;18.50;53.60;;;;;;4897753;29;20098;-79
2021/11/20 15:29:22;;;;;;;5.47;3.55;;;17.50;55.50;;;;;;4896620;29;20052;-79
2021/11/20 15:31:50;;;;;;;6.28;3.90;;;16.60;57.50;;;;;;4897465;29;20087;-79
2021/11/20 15:34:17;;;;;;;6.85;3.80;;;15.90;59.60;;;;;;4897647;29;20481;-83
2021/11/20 15:36:46;;;;;;;6.10;3.80;;;15.20;61.40;;;;;;4898085;29;20139;-81
2021/11/20 15:39:14;;;;;;;6.75;3.80;;;14.50;63.40;;;;;;4901773;29;20052;-81
2021/11/20 15:41:41;;;;;;;6.53;3.90;;;13.90;65.30;;;;;;4907591;29;20103;-80
2021/11/20 15:44:09;;;;;;;6.38;4.40;;;13.40;67.40;;;;;;4905475;29;20052;-82
2021/11/20 15:46:36;;;;;;;6.47;3.83;;;12.90;69.50;;;;;;4898106;29;20071;-84
2021/11/20 15:49:04;;;;;;;6.13;4.05;;;12.50;72.00;;;;;;4894031;29;20132;-82
2021/11/20 15:51:31;;;;;;;5.65;3.80;;;12.10;75.20;;;;;;4896698;29;20048;-81
2021/11/20 15:54:00;;;;;;;6.38;4.10;;;11.80;79.20;;;;;;4897335;29;20091;-81
2021/11/20 15:56:27;;;;;;;6.15;4.15;;;11.50;84.00;;;;;;4896806;29;20502;-84
2021/11/20 15:58:54;;;;;;;7.47;4.32;;;11.20;88.20;;;;;;4895870;29;20085;-84
2021/11/20 16:01:22;;;;;;;6.72;4.40;;;10.90;90.60;;;;;;4897165;29;20139;-84
2021/11/20 16:03:49;;;;;;;6.05;4.15;;;10.70;91.70;;;;;;4896060;29;20082;-82
2021/11/20 16:06:17;;;;;;;7.20;4.57;;;10.50;92.50;;;;;;4893908;29;20063;-78
2021/11/20 16:08:44;;;;;;;7.10;4.50;;;10.30;93.30;;;;;;4893869;29;20143;-78
2021/11/20 16:11:13;;;;;;;7.80;4.75;;;10.20;93.80;;;;;;4894152;29;20059;-78
2021/11/20 16:13:40;;;;;;;7.85;4.90;;;10.00;94.20;;;;;;4891645;29;20123;-79
2021/11/20 16:16:07;;;;;;;7.80;5.10;;;9.90;94.70;;;;;;4892943;29;20147;-78
2021/11/20 16:18:35;;;;;;;7.95;4.88;;;9.70;95.10;;;;;;4893203;29;20059;-77
2021/11/20 16:21:03;;;;;;;7.20;4.63;;;9.60;95.50;;;;;;4893988;29;20049;-78
2021/11/20 16:23:30;;;;;;;7.90;5.05;;;9.40;95.90;;;;;;4893858;29;20451;-76
2021/11/20 16:25:57;;;;;;;7.63;4.80;;;9.40;96.30;;;;;;4892957;29;20053;-79
2021/11/20 16:28:26;;;;;;;9.05;5.30;;;9.30;96.60;;;;;;4887944;29;20139;-79
2021/11/20 16:30:53;;;;;;;7.35;4.80;;;9.10;96.90;;;;;;4892823;29;20135;-80
2021/11/20 16:33:20;;;;;;;9.60;5.25;;;9.10;97.20;;;;;;4892932;29;20164;-81
2021/11/20 16:35:47;;;;;;;9.00;5.05;;;9.00;97.40;;;;;;4893335;29;20056;-80
2021/11/20 16:38:14;;;;;;;7.57;4.53;;;8.90;97.70;;;;;;4894080;29;20108;-78
2021/11/20 16:40:41;;;;;;;8.95;5.35;;;8.80;97.80;;;;;;4893796;29;20131;-79
2021/11/20 16:43:09;;;;;;;8.73;5.35;;;8.70;98.00;;;;;;4892504;29;20092;-79
2021/11/20 16:45:40;;;;;;;8.50;4.82;;;8.70;98.10;;;;;;4893679;29;20131;-78
2021/11/20 16:48:07;;;;;;;8.65;5.18;;;8.60;97.80;;;;;;4891420;29;20501;-82
2021/11/20 16:50:53;;;;;;;8.57;5.32;;;8.40;97.90;;;;;;4893282;29;20073;-81
2021/11/20 16:53:24;;;;;;;8.68;5.00;;;8.30;98.10;;;;;;4883770;29;20137;-80
2021/11/20 16:55:51;;;;;;;8.88;4.82;;;8.10;98.50;;;;;;4891973;29;20143;-80
2021/11/20 16:58:19;;;;;;;7.28;4.40;;;8.00;98.80;;;;;;4892769;29;20136;-81
2021/11/20 17:00:48;;;;;;;7.30;4.40;;;7.90;99.20;;;;;;4893281;29;20087;-81
2021/11/20 17:03:15;;;;;;;8.10;4.85;;;7.80;99.50;;;;;;4900220;29;20124;-82
2021/11/20 17:05:42;;;;;;;8.20;5.13;;;7.70;99.70;;;;;;4894310;29;20120;-81
2021/11/20 17:08:09;;;;;;;7.38;4.70;;;7.70;99.80;;;;;;4892923;29;20144;-80
2021/11/20 17:10:37;;;;;;;7.97;4.78;;;7.60;99.90;;;;;;4896284;29;20499;-78
2021/11/20 17:13:04;;;;;;;7.72;4.82;;;7.60;99.90;;;;;;4896997;29;20124;-78
2021/11/20 17:15:31;;;;;;;9.25;5.00;;;7.50;99.90;;;;;;4896925;29;20048;-79
2021/11/20 17:17:59;;;;;;;8.60;5.00;;;7.50;99.90;;;;;;4896953;29;20127;-80
2021/11/20 17:20:27;;;;;;;7.60;4.65;;;7.50;99.90;;;;;;4896788;29;20060;-80
2021/11/20 17:22:54;;;;;;;7.88;5.00;;;7.40;99.90;;;;;;4896447;29;20060;-84
2021/11/20 17:25:22;;;;;;;8.23;4.93;;;7.40;99.90;;;;;;4896715;29;20074;-75
2021/11/20 17:27:50;;;;;;;7.80;4.97;;;7.30;99.90;;;;;;4893634;29;20410;-75
2021/11/20 17:30:20;;;;;;;7.68;4.70;;;7.30;99.90;;;;;;4896696;29;20087;-78
2021/11/20 17:32:47;;;;;;;9.15;4.60;;;7.20;99.90;;;;;;4896751;29;20056;-79
2021/11/20 17:35:16;;;;;;;7.70;4.55;;;7.20;99.90;;;;;;4896312;29;20577;-78
2021/11/20 17:37:43;;;;;;;7.57;4.50;;;7.20;99.90;;;;;;4897005;29;20052;-77
2021/11/20 17:40:12;;;;;;;7.15;4.45;;;7.20;99.90;;;;;;4895848;29;20115;-77
2021/11/20 17:42:39;;;;;;;7.53;4.38;;;7.20;99.90;;;;;;4894923;29;20573;-75
2021/11/20 17:45:07;;;;;;;7.95;4.55;;;7.10;99.90;;;;;;4895391;29;20053;-75
2021/11/20 17:47:35;;;;;;;7.28;4.63;;;7.10;99.90;;;;;;4895768;29;20048;-77
2021/11/20 17:50:03;;;;;;;8.27;4.63;;;7.00;99.90;;;;;;4896106;29;20052;-73
2021/11/20 17:52:31;;;;;;;7.78;4.50;;;6.90;99.90;;;;;;4896562;29;20136;-76
2021/11/20 17:54:59;;;;;;;8.70;4.95;;;6.90;99.90;;;;;;4896086;29;20048;-76
2021/11/20 17:57:26;;;;;;;9.68;5.55;;;6.80;99.90;;;;;;4895815;29;20059;-75
2021/11/20 17:59:53;;;;;;;8.40;5.18;;;6.70;99.90;;;;;;4895957;29;20060;-74
2021/11/20 18:02:20;;;;;;;7.55;4.78;;;6.60;99.90;;;;;;4895308;29;20510;-76
2021/11/20 18:04:49;;;;;;;8.13;5.25;;;6.50;99.90;;;;;;4896370;29;20055;-75
2021/11/20 18:07:18;;;;;;;8.48;5.22;;;6.50;99.90;;;;;;4895783;29;20141;-74
2021/11/20 18:09:46;;;;;;;7.10;4.47;;;6.40;99.90;;;;;;4895570;29;20419;-74
2021/11/20 18:12:13;;;;;;;7.45;4.35;;;6.40;99.90;;;;;;4896089;29;20131;-75
2021/11/20 18:14:40;;;;;;;7.28;4.30;;;6.30;99.90;;;;;;4895888;29;20140;-74
2021/11/20 18:17:08;;;;;;;8.18;4.75;;;6.30;99.90;;;;;;4894967;29;20467;-74
2021/11/20 18:19:35;;;;;;;7.75;4.57;;;6.30;99.90;;;;;;4895235;29;20143;-75
2021/11/20 18:22:02;;;;;;;11.68;6.68;;;6.30;99.90;;;;;;4894437;29;20054;-76
2021/11/20 18:24:29;;;;;;;9.13;5.70;;;6.30;99.90;;;;;;4895626;29;20087;-77
2021/11/20 18:26:57;;;;;;;8.82;5.55;;;6.30;99.90;;;;;;4895230;29;20053;-74
2021/11/20 18:29:25;;;;;;;7.80;5.00;;;6.20;99.90;;;;;;4895268;29;20546;-75
2021/11/20 18:31:52;;;;;;;7.95;4.95;;;6.20;99.90;;;;;;4894117;29;20139;-75
2021/11/20 18:34:19;;;;;;;6.85;4.38;;;6.20;99.90;;;;;;4900483;29;20075;-77
2021/11/20 18:36:47;;;;;;;8.52;4.53;;;6.10;99.90;;;;;;4895674;29;20155;-78
2021/11/20 18:39:14;;;;;;;6.70;4.00;;;6.10;99.90;;;;;;4894603;29;20414;-75
2021/11/20 18:41:41;;;;;;;7.10;4.70;;;6.10;99.90;;;;;;4895357;29;20066;-74
2021/11/20 18:44:10;;;;;;;8.18;5.10;;;6.10;99.90;;;;;;4895225;29;20582;-82
2021/11/20 18:46:38;;;;;;;8.30;4.55;;;6.10;99.90;;;;;;4894942;29;20082;-81
2021/11/20 18:49:05;;;;;;;8.25;5.05;;;6.10;99.90;;;;;;4894577;29;20052;-79
2021/11/20 18:51:33;;;;;;;7.20;4.35;;;6.10;99.90;;;;;;4905618;29;20052;-79
2021/11/20 18:54:00;;;;;;;8.73;5.38;;;6.10;99.90;;;;;;4898047;29;20077;-81
2021/11/20 18:56:27;;;;;;;8.52;5.13;;;6.10;99.90;;;;;;4894237;29;20132;-79
2021/11/20 18:58:55;;;;;;;8.75;5.30;;;6.10;99.90;;;;;;4894375;29;20497;-81
2021/11/20 19:01:24;;;;;;;9.18;5.25;;;6.00;99.90;;;;;;4894949;29;20144;-82
2021/11/20 19:03:51;;;;;;;7.50;5.35;;;6.00;99.90;;;;;;4893641;29;20482;-81
2021/11/20 19:06:20;;;;;;;7.45;4.95;;;6.00;99.90;;;;;;4894166;29;20172;-82
2021/11/20 19:08:47;;;;;;;12.65;5.55;;;6.00;99.90;;;;;;4894064;29;20565;-79
2021/11/20 19:11:14;;;;;;;9.48;5.90;;;6.00;99.90;;;;;;4894570;29;20082;-82
2021/11/20 19:13:42;;;;;;;8.80;5.35;;;6.00;99.90;;;;;;4897561;29;20136;-83
2021/11/20 19:16:11;;;;;;;9.50;5.55;;;5.90;99.90;;;;;;4895336;29;20574;-82
2021/11/20 19:18:41;;;;;;;8.80;5.60;;;5.90;99.90;;;;;;4881607;29;20048;-81
2021/11/20 19:21:08;;;;;;;9.73;6.10;;;5.90;99.90;;;;;;4896198;29;20064;-81